CheckWX is a tool to help pilots better visualize weather data.  It is not intended as a substitute for an official pre-flight weather briefing.

05:12:08 UTC

KELM TAF
Elmira / Corning Regional Airport
Elmira/Corning, New York, USA
KELM 230214Z 2302/2324 30018G32KT 6SM -SN SCT015 OVC028 TEMPO 2302/2306 2SM -SHSN OVC015 FM230600 30016G27KT P6SM OVC040 FM231100 30015G26KT P6SM BKN100 FM231200 30015G26KT P6SM SKC FM232300 29011G20KT P6SM SKC

Mar-23@
02:00 UTC

Mar-23 @ 02:00 UTC

Mar-23@
06:00 UTC

Mar-23 @ 06:00 UTC

KELM 230214Z 2302/2324 30018G32KT 6SM -SN SCT015 OVC028
Wind
  • 300° at 18 KTS
  • {Gusting to 32 KTS
Conditions
Light Snow
Cloud Levels
  • Scattered at 1,500' AGL
  • Overcast at 2,800' AGL

Mar-23@
02:00 UTC

Mar-23 @ 02:00 UTC

Mar-23@
06:00 UTC

Mar-23 @ 06:00 UTC

TEMPO 2302/2306 2SM -SHSN OVC015

Temporary

Temporary Changes expected for less than half the time period

Conditions
Light Snow
Cloud Levels
  • Overcast at 1,500' AGL

Mar-23@
06:00 UTC

Mar-23 @ 06:00 UTC

Mar-23@
11:00 UTC

Mar-23 @ 11:00 UTC

FM230600 30016G27KT P6SM OVC040

From

From Standard forecast or significant change

Wind
  • 300° at 16 KTS
  • {Gusting to 27 KTS
Cloud Levels
  • Overcast at 4,000' AGL

Mar-23@
11:00 UTC

Mar-23 @ 11:00 UTC

Mar-23@
12:00 UTC

Mar-23 @ 12:00 UTC

FM231100 30015G26KT P6SM BKN100

From

From Standard forecast or significant change

Wind
  • 300° at 15 KTS
  • {Gusting to 26 KTS
Cloud Levels
  • Broken at 10,000' AGL

Mar-23@
12:00 UTC

Mar-23 @ 12:00 UTC

Mar-23@
23:00 UTC

Mar-23 @ 23:00 UTC

FM231200 30015G26KT P6SM SKC

From

From Standard forecast or significant change

Wind
  • 300° at 15 KTS
  • {Gusting to 26 KTS
Cloud Levels
  • Clear skies

Mar-23@
23:00 UTC

Mar-23 @ 23:00 UTC

Mar-24@
00:00 UTC

Mar-24 @ 00:00 UTC

FM232300 29011G20KT P6SM SKC

From

From Standard forecast or significant change

Wind
  • 290° at 11 KTS
  • {Gusting to 20 KTS
Cloud Levels
  • Clear skies